createdAt,value
2019-03-21T00:02:00.130Z,12.93
2019-03-21T00:04:23.569Z,12.60
2019-03-21T00:06:47.035Z,15.60
2019-03-21T00:09:15.906Z,12.70
2019-03-21T00:12:02.015Z,12.10
2019-03-21T00:14:47.918Z,12.20
2019-03-21T00:17:33.470Z,13.53
2019-03-21T00:19:56.896Z,12.80
2019-03-21T00:22:20.376Z,13.43
2019-03-21T00:24:43.803Z,16.37
2019-03-21T00:27:07.279Z,13.23
2019-03-21T00:29:30.752Z,14.30
2019-03-21T00:31:54.182Z,15.33
2019-03-21T00:34:17.882Z,14.37
2019-03-21T00:36:41.364Z,13.90
2019-03-21T00:39:07.310Z,18.23
2019-03-21T00:41:30.762Z,12.63
2019-03-21T00:43:54.190Z,12.10
2019-03-21T00:46:17.660Z,14.03
2019-03-21T00:48:41.094Z,11.90
2019-03-21T00:51:04.575Z,13.03
2019-03-21T00:53:28.010Z,16.23
2019-03-21T00:55:59.232Z,15.37
2019-03-21T00:58:22.703Z,13.83
2019-03-21T01:00:49.240Z,12.17
2019-03-21T01:03:13.326Z,11.23
2019-03-21T01:05:36.759Z,14.53
2019-03-21T01:08:00.222Z,15.90
2019-03-21T01:10:26.463Z,15.97
2019-03-21T01:12:50.184Z,14.93
2019-03-21T01:15:13.613Z,14.50
2019-03-21T01:17:37.080Z,15.60
2019-03-21T01:20:00.907Z,11.85
2019-03-21T01:22:24.384Z,14.93
2019-03-21T01:24:47.949Z,13.63
2019-03-21T01:27:11.415Z,13.67
2019-03-21T01:29:34.882Z,18.07
2019-03-21T01:31:58.311Z,12.97
2019-03-21T01:34:21.778Z,15.23
2019-03-21T01:36:45.203Z,13.03
2019-03-21T01:39:08.673Z,15.37
2019-03-21T01:41:32.109Z,12.97
2019-03-21T01:43:55.580Z,17.07
2019-03-21T01:46:21.694Z,15.33
2019-03-21T01:48:45.502Z,16.30
2019-03-21T01:51:08.957Z,13.03
2019-03-21T01:53:32.415Z,11.67
2019-03-21T01:55:55.871Z,12.73
2019-03-21T01:58:19.303Z,12.63
2019-03-21T02:00:51.366Z,16.33
2019-03-21T02:03:15.133Z,13.27
2019-03-21T02:05:38.564Z,16.43
2019-03-21T02:08:02.043Z,17.23
2019-03-21T02:10:25.486Z,15.40
2019-03-21T02:12:48.959Z,14.83
2019-03-21T02:15:14.432Z,20.17
2019-03-21T02:17:37.875Z,14.97
2019-03-21T02:20:01.342Z,20.83
2019-03-21T02:22:24.777Z,18.93
2019-03-21T02:24:48.230Z,14.30
2019-03-21T02:27:11.713Z,15.80
2019-03-21T02:29:35.141Z,11.93
2019-03-21T02:31:58.609Z,9.47
2019-03-21T02:34:22.035Z,14.53
2019-03-21T02:36:45.592Z,12.73
2019-03-21T02:39:09.031Z,17.13
2019-03-21T02:41:32.466Z,15.50
2019-03-21T02:43:56.201Z,14.63
2019-03-21T02:46:19.692Z,16.93
2019-03-21T02:48:43.114Z,15.63
2019-03-21T02:51:07.593Z,17.50
2019-03-21T02:53:31.064Z,14.63
2019-03-21T02:55:54.495Z,18.37
2019-03-21T02:58:17.971Z,14.50
2019-03-21T03:00:43.718Z,15.57
2019-03-21T03:03:08.186Z,13.23
2019-03-21T03:05:33.107Z,13.63
2019-03-21T03:07:56.543Z,20.77
2019-03-21T03:10:38.134Z,14.77
2019-03-21T03:13:01.524Z,13.37
2019-03-21T03:15:28.374Z,15.80
2019-03-21T03:17:51.808Z,10.43
2019-03-21T03:20:17.320Z,12.53
2019-03-21T03:22:40.752Z,13.90
2019-03-21T03:25:06.129Z,16.07
2019-03-21T03:27:29.586Z,10.57
2019-03-21T03:29:53.013Z,11.13
2019-03-21T03:32:16.767Z,9.07
2019-03-21T03:34:40.191Z,11.73
2019-03-21T03:37:03.671Z,13.13
2019-03-21T03:39:27.084Z,10.93
2019-03-21T03:41:50.628Z,12.03
2019-03-21T03:44:14.063Z,11.70
2019-03-21T03:46:37.532Z,12.90
2019-03-21T03:49:01.035Z,12.70
2019-03-21T03:51:24.499Z,10.53
2019-03-21T03:53:47.972Z,10.63
2019-03-21T03:56:11.407Z,13.30
2019-03-21T03:58:44.024Z,14.53
2019-03-21T04:01:07.448Z,11.80
2019-03-21T04:03:30.873Z,19.60
2019-03-21T04:05:54.351Z,18.13
2019-03-21T04:08:18.141Z,14.90
2019-03-21T04:10:49.175Z,13.83
2019-03-21T04:13:12.798Z,14.23
2019-03-21T04:15:51.340Z,13.20
2019-03-21T04:18:01.417Z,13.23
2019-03-21T04:20:36.539Z,16.43
2019-03-21T04:23:01.056Z,16.50
2019-03-21T04:25:36.631Z,13.30
2019-03-21T04:28:00.058Z,12.83
2019-03-21T04:30:23.535Z,14.03
2019-03-21T04:32:46.964Z,17.13
2019-03-21T04:35:12.885Z,14.53
2019-03-21T04:37:36.362Z,15.70
2019-03-21T04:39:59.783Z,15.57
2019-03-21T04:42:23.203Z,16.43
2019-03-21T04:44:46.687Z,12.93
2019-03-21T04:47:10.114Z,16.07
2019-03-21T04:49:33.569Z,13.97
2019-03-21T04:51:57.302Z,17.23
2019-03-21T04:54:20.780Z,15.93
2019-03-21T04:56:44.210Z,13.73
2019-03-21T04:59:07.694Z,14.50
2019-03-21T05:01:31.170Z,14.43
2019-03-21T05:03:54.916Z,12.87
2019-03-21T05:06:18.372Z,10.87
2019-03-21T05:08:41.799Z,20.17
2019-03-21T05:11:05.276Z,22.50
2019-03-21T05:13:28.752Z,16.50
2019-03-21T05:15:53.650Z,13.33
2019-03-21T05:18:22.874Z,15.83
2019-03-21T05:20:46.367Z,15.60
2019-03-21T05:23:09.799Z,14.27
2019-03-21T05:25:33.263Z,15.40
2019-03-21T05:27:56.839Z,13.57
2019-03-21T05:30:23.555Z,13.73
2019-03-21T05:32:47.032Z,17.10
2019-03-21T05:35:11.015Z,13.13
2019-03-21T05:37:34.791Z,14.20
2019-03-21T05:39:58.232Z,19.23
2019-03-21T05:42:21.703Z,13.47
2019-03-21T05:44:45.122Z,13.90
2019-03-21T05:47:08.562Z,15.77
2019-03-21T05:49:32.024Z,15.47
2019-03-21T05:51:55.500Z,14.83
2019-03-21T05:54:18.975Z,12.23
2019-03-21T05:56:42.401Z,17.37
2019-03-21T05:59:05.879Z,13.47
2019-03-21T06:01:29.305Z,13.63
2019-03-21T06:03:53.786Z,13.63
2019-03-21T06:06:36.759Z,15.10
2019-03-21T06:09:00.218Z,12.57
2019-03-21T06:11:23.820Z,13.03
2019-03-21T06:13:47.263Z,14.27
2019-03-21T06:16:11.332Z,13.67
2019-03-21T06:18:52.990Z,12.83
2019-03-21T06:21:46.898Z,11.23
2019-03-21T06:24:33.118Z,11.70
2019-03-21T06:27:17.581Z,11.03
2019-03-21T06:29:41.040Z,9.97
2019-03-21T06:32:04.508Z,11.30
2019-03-21T06:34:27.970Z,12.10
2019-03-21T06:36:51.531Z,12.93
2019-03-21T06:39:15.008Z,13.30
2019-03-21T06:41:38.473Z,14.20
2019-03-21T06:44:01.943Z,14.60
2019-03-21T06:46:25.516Z,13.10
2019-03-21T06:48:49.266Z,18.30
2019-03-21T06:51:12.709Z,11.67
2019-03-21T06:53:36.171Z,17.60
2019-03-21T06:55:59.641Z,16.53
2019-03-21T06:58:23.121Z,14.67
2019-03-21T07:00:46.569Z,17.23
2019-03-21T07:03:10.043Z,14.07
2019-03-21T07:05:33.502Z,14.43
2019-03-21T07:07:56.935Z,17.40
2019-03-21T07:10:20.734Z,23.47
2019-03-21T07:12:44.166Z,16.57
2019-03-21T07:15:09.672Z,18.20
2019-03-21T07:17:33.146Z,17.10
2019-03-21T07:19:56.618Z,20.73
2019-03-21T07:22:20.064Z,21.63
2019-03-21T07:24:43.545Z,24.73
2019-03-21T07:27:06.979Z,24.90
2019-03-21T07:29:30.414Z,19.73
2019-03-21T07:31:53.898Z,18.90
2019-03-21T07:34:17.340Z,16.53
2019-03-21T07:36:40.813Z,18.17
2019-03-21T07:39:06.094Z,13.93
2019-03-21T07:41:29.530Z,12.13
2019-03-21T07:43:53.004Z,11.03
2019-03-21T07:46:16.435Z,11.10
2019-03-21T07:48:39.902Z,14.83
2019-03-21T07:51:03.332Z,11.27
2019-03-21T07:53:26.797Z,16.20
2019-03-21T07:55:50.234Z,13.77
2019-03-21T07:58:13.700Z,12.23
2019-03-21T08:00:37.181Z,14.97
2019-03-21T08:03:00.619Z,15.53
2019-03-21T08:05:24.069Z,18.57
2019-03-21T08:07:47.538Z,18.53
2019-03-21T08:10:13.118Z,17.30
2019-03-21T08:12:36.546Z,16.60
2019-03-21T08:15:00.025Z,15.27
2019-03-21T08:17:23.448Z,13.80
2019-03-21T08:19:46.876Z,15.10
2019-03-21T08:22:10.361Z,12.80
2019-03-21T08:24:33.805Z,11.43
2019-03-21T08:26:57.233Z,15.57
2019-03-21T08:29:20.691Z,11.80
2019-03-21T08:31:44.164Z,9.30
2019-03-21T08:34:07.612Z,12.43
2019-03-21T08:36:31.049Z,11.00
2019-03-21T08:38:54.478Z,10.90
2019-03-21T08:41:17.958Z,12.53
2019-03-21T08:43:41.390Z,11.43
2019-03-21T08:46:04.824Z,10.83
2019-03-21T08:48:28.297Z,12.30
2019-03-21T08:50:51.727Z,10.93
2019-03-21T08:53:15.212Z,11.20
2019-03-21T08:55:38.641Z,11.60
2019-03-21T08:58:02.119Z,10.30
2019-03-21T09:00:33.763Z,14.30
2019-03-21T09:02:50.880Z,12.60
2019-03-21T09:05:14.352Z,9.47
2019-03-21T09:07:37.776Z,9.03
2019-03-21T09:10:01.354Z,15.07
2019-03-21T09:12:24.829Z,9.53
2019-03-21T09:14:48.261Z,11.20
2019-03-21T09:17:11.681Z,8.97
2019-03-21T09:19:35.148Z,9.67
2019-03-21T09:21:58.576Z,12.33
2019-03-21T09:24:22.073Z,9.47
2019-03-21T09:26:45.560Z,12.60
2019-03-21T09:29:08.983Z,8.70
2019-03-21T09:31:32.817Z,11.00
2019-03-21T09:33:56.284Z,9.50
2019-03-21T09:36:19.754Z,9.67
2019-03-21T09:38:43.235Z,11.03
2019-03-21T09:41:06.762Z,9.53
2019-03-21T09:43:30.192Z,12.00
2019-03-21T09:45:53.662Z,11.87
2019-03-21T09:48:17.095Z,8.73
2019-03-21T09:50:40.578Z,10.73
2019-03-21T09:53:04.005Z,10.83
2019-03-21T09:55:27.494Z,13.77
2019-03-21T09:57:50.970Z,14.17
2019-03-21T10:00:17.462Z,12.50
2019-03-21T10:02:40.935Z,10.23
2019-03-21T10:05:07.017Z,12.43
2019-03-21T10:07:30.497Z,13.37
2019-03-21T10:09:53.931Z,15.23
2019-03-21T10:12:17.415Z,12.97
2019-03-21T10:14:40.852Z,12.27
2019-03-21T10:17:04.328Z,10.80
2019-03-21T10:19:27.770Z,11.00
2019-03-21T10:21:51.310Z,10.37
2019-03-21T10:24:14.771Z,10.57
2019-03-21T10:26:38.201Z,9.60
2019-03-21T10:29:01.688Z,12.60
2019-03-21T10:31:25.123Z,10.53
2019-03-21T10:33:48.600Z,12.30
2019-03-21T10:36:12.035Z,11.87
2019-03-21T10:38:35.504Z,11.97
2019-03-21T10:40:58.988Z,11.87
2019-03-21T10:43:22.467Z,9.50
2019-03-21T10:45:45.894Z,11.70
2019-03-21T10:48:09.317Z,11.83
2019-03-21T10:50:38.135Z,12.03
2019-03-21T10:53:01.573Z,12.53
2019-03-21T10:55:25.039Z,14.17
2019-03-21T10:57:48.511Z,14.40
2019-03-21T11:00:12.412Z,10.70
2019-03-21T11:02:35.850Z,12.27
2019-03-21T11:04:59.319Z,11.37
2019-03-21T11:07:21.640Z,9.90
2019-03-21T11:09:45.064Z,10.30
2019-03-21T11:12:08.911Z,11.60
2019-03-21T11:14:32.349Z,12.90
2019-03-21T11:16:55.827Z,8.90
2019-03-21T11:19:19.287Z,9.13
2019-03-21T11:21:42.724Z,10.00
2019-03-21T11:24:06.191Z,13.00
2019-03-21T11:26:29.667Z,10.30
2019-03-21T11:28:53.102Z,10.00
2019-03-21T11:31:16.606Z,11.10
2019-03-21T11:33:40.017Z,11.10
2019-03-21T11:36:03.717Z,10.40
2019-03-21T11:38:27.500Z,13.90
2019-03-21T11:40:50.956Z,12.53
2019-03-21T11:43:14.426Z,10.97
2019-03-21T11:45:37.905Z,12.20
2019-03-21T11:48:01.326Z,12.37
2019-03-21T11:50:24.815Z,10.70
2019-03-21T11:52:48.247Z,11.30
2019-03-21T11:55:11.861Z,9.53
2019-03-21T11:57:35.311Z,11.83
2019-03-21T11:59:58.766Z,8.50
2019-03-21T12:02:27.105Z,8.60
2019-03-21T12:04:47.388Z,12.73
2019-03-21T12:07:10.821Z,9.87
2019-03-21T12:09:34.296Z,10.63
2019-03-21T12:11:57.733Z,9.40
2019-03-21T12:14:21.204Z,12.07
2019-03-21T12:16:44.958Z,9.43
2019-03-21T12:19:08.419Z,10.40
2019-03-21T12:21:31.890Z,11.00
2019-03-21T12:23:55.363Z,8.63
2019-03-21T12:26:18.838Z,11.13
2019-03-21T12:28:42.269Z,9.90
2019-03-21T12:31:05.746Z,10.67
2019-03-21T12:33:29.176Z,9.47
2019-03-21T12:35:52.908Z,10.67
2019-03-21T12:38:16.344Z,10.53
2019-03-21T12:40:39.796Z,7.77
2019-03-21T12:43:03.647Z,9.27
2019-03-21T12:45:27.075Z,9.93
2019-03-21T12:47:50.527Z,9.67
2019-03-21T12:50:14.364Z,9.03
2019-03-21T12:55:03.251Z,8.67
2019-03-21T12:57:26.744Z,9.13
2019-03-21T12:59:50.184Z,8.30
2019-03-21T13:02:13.930Z,8.43
2019-03-21T13:04:37.408Z,6.97
2019-03-21T13:07:00.842Z,8.13
2019-03-21T13:07:13.397Z,8.43
2019-03-21T13:09:24.317Z,7.27
2019-03-21T13:11:47.742Z,9.10
2019-03-21T13:14:11.165Z,9.57
2019-03-21T13:16:34.642Z,8.93
2019-03-21T13:18:58.091Z,7.67
2019-03-21T13:21:21.561Z,8.23
2019-03-21T13:23:44.992Z,7.03
2019-03-21T13:26:08.471Z,8.83
2019-03-21T13:28:31.897Z,9.10
2019-03-21T13:30:55.378Z,10.40
2019-03-21T13:33:18.819Z,11.07
2019-03-21T13:35:42.290Z,10.30
2019-03-21T13:38:05.856Z,8.10
2019-03-21T13:40:29.635Z,10.37
2019-03-21T13:42:53.070Z,7.93
2019-03-21T13:45:16.543Z,9.10
2019-03-21T13:47:40.009Z,7.17
2019-03-21T13:50:05.188Z,7.90
2019-03-21T13:52:28.659Z,10.17
2019-03-21T13:54:55.220Z,11.40
2019-03-21T13:57:18.701Z,11.00
2019-03-21T13:59:42.134Z,8.23
2019-03-21T14:02:05.623Z,9.43
2019-03-21T14:04:29.094Z,11.10
2019-03-21T14:06:52.522Z,8.37
2019-03-21T14:09:15.993Z,11.23
2019-03-21T14:11:39.466Z,10.20
2019-03-21T14:14:02.935Z,9.13
2019-03-21T14:16:26.367Z,9.27
2019-03-21T14:18:49.843Z,9.93
2019-03-21T14:21:13.336Z,9.63
2019-03-21T14:23:43.186Z,9.07
2019-03-21T14:26:01.943Z,8.53
2019-03-21T14:28:25.415Z,8.73
2019-03-21T14:30:48.850Z,9.37
2019-03-21T14:33:12.322Z,9.20
2019-03-21T14:35:35.751Z,8.27
2019-03-21T14:37:59.229Z,11.57
2019-03-21T14:40:22.661Z,7.97
2019-03-21T14:42:46.325Z,10.23
2019-03-21T14:45:12.249Z,8.23
2019-03-21T14:47:36.609Z,8.67
2019-03-21T14:50:00.521Z,8.55
2019-03-21T14:52:24.008Z,11.80
2019-03-21T14:54:47.738Z,8.13
2019-03-21T14:57:11.232Z,10.03
2019-03-21T14:59:34.792Z,6.53
2019-03-21T15:01:58.261Z,8.23
2019-03-21T15:04:21.964Z,7.30
2019-03-21T15:06:45.763Z,8.47
2019-03-21T15:09:09.193Z,7.37
2019-03-21T15:11:32.646Z,8.00
2019-03-21T15:13:56.078Z,7.90
2019-03-21T15:16:19.948Z,8.13
2019-03-21T15:18:43.393Z,10.38
2019-03-21T15:21:06.875Z,7.95
2019-03-21T15:23:40.098Z,8.15
2019-03-21T15:25:55.670Z,7.85
2019-03-21T15:28:19.230Z,5.47
2019-03-21T15:30:42.661Z,10.10
2019-03-21T15:33:06.139Z,7.62
2019-03-21T15:35:29.571Z,7.83
2019-03-21T15:37:53.038Z,8.75
2019-03-21T15:40:16.815Z,7.93
2019-03-21T15:42:40.236Z,8.05
2019-03-21T15:45:20.474Z,11.23
2019-03-21T15:47:31.002Z,7.43
2019-03-21T15:49:54.749Z,7.77
2019-03-21T15:52:18.180Z,7.13
2019-03-21T15:54:41.981Z,6.43
2019-03-21T15:57:05.420Z,10.90
2019-03-21T15:59:28.954Z,7.63
2019-03-21T16:01:52.801Z,7.47
2019-03-21T16:04:16.299Z,7.33
2019-03-21T16:06:39.702Z,6.73
2019-03-21T16:09:03.701Z,7.23
2019-03-21T16:11:27.173Z,6.20
2019-03-21T16:13:50.643Z,7.60
2019-03-21T16:16:14.379Z,7.70
2019-03-21T16:18:37.860Z,5.97
2019-03-21T16:21:01.336Z,5.93
2019-03-21T16:23:24.793Z,7.73
2019-03-21T16:25:48.705Z,6.47
2019-03-21T16:28:12.341Z,6.90
2019-03-21T16:30:35.795Z,6.83
2019-03-21T16:32:59.220Z,8.83
2019-03-21T16:35:22.709Z,8.77
2019-03-21T16:37:46.139Z,7.13
2019-03-21T16:40:16.080Z,6.37
2019-03-21T16:42:39.550Z,7.97
2019-03-21T16:45:03.189Z,8.00
2019-03-21T16:47:26.659Z,7.33
2019-03-21T16:49:50.124Z,10.53
2019-03-21T16:52:13.598Z,12.20
2019-03-21T16:54:37.035Z,11.50
2019-03-21T16:57:00.490Z,6.40
2019-03-21T16:59:23.919Z,8.10
2019-03-21T17:01:47.386Z,5.93
2019-03-21T17:04:10.820Z,9.33
2019-03-21T17:06:34.570Z,14.43
2019-03-21T17:08:58.041Z,23.60
2019-03-21T17:11:21.565Z,58.67
2019-03-21T17:13:45.539Z,19.17
2019-03-21T17:16:08.995Z,6.50
2019-03-21T17:18:32.703Z,67.87
2019-03-21T17:20:56.188Z,20.17
2019-03-21T17:23:19.637Z,19.70
2019-03-21T17:25:43.084Z,15.53
2019-03-21T17:28:06.627Z,13.53
2019-03-21T17:30:30.342Z,8.40
2019-03-21T17:32:53.777Z,11.33
2019-03-21T17:35:17.328Z,11.83
2019-03-21T17:37:40.762Z,11.87
2019-03-21T17:40:06.857Z,6.63
2019-03-21T17:42:30.311Z,8.33
2019-03-21T17:44:53.781Z,21.30
2019-03-21T17:47:17.218Z,10.60
2019-03-21T17:49:40.678Z,18.10
2019-03-21T17:52:04.327Z,9.67
2019-03-21T17:54:27.856Z,13.53
2019-03-21T17:56:51.436Z,7.63
2019-03-21T17:59:14.859Z,9.77
2019-03-21T18:01:38.349Z,8.33
2019-03-21T18:04:01.840Z,9.53
2019-03-21T18:06:25.308Z,9.13
2019-03-21T18:08:49.602Z,7.47
2019-03-21T18:11:13.034Z,7.67
2019-03-21T18:13:36.517Z,8.90
2019-03-21T18:15:59.960Z,10.70
2019-03-21T18:18:23.428Z,9.80
2019-03-21T18:20:46.863Z,8.10
2019-03-21T18:23:10.601Z,8.77
2019-03-21T18:25:34.030Z,6.87
2019-03-21T18:27:57.496Z,6.90
2019-03-21T18:30:21.021Z,8.13
2019-03-21T18:32:44.652Z,11.70
2019-03-21T18:35:08.334Z,10.47
2019-03-21T18:37:31.793Z,7.77
2019-03-21T18:39:55.345Z,9.47
2019-03-21T18:42:18.814Z,10.40
2019-03-21T18:44:42.264Z,9.00
2019-03-21T18:47:05.681Z,9.77
2019-03-21T18:49:29.160Z,10.83
2019-03-21T18:51:52.594Z,12.83
2019-03-21T18:54:16.063Z,12.23
2019-03-21T18:56:39.500Z,12.83
2019-03-21T18:59:02.937Z,15.63
2019-03-21T19:01:26.427Z,26.40
2019-03-21T19:03:49.866Z,30.20
2019-03-21T19:06:13.306Z,19.97
2019-03-21T19:08:36.773Z,15.20
2019-03-21T19:11:00.210Z,15.67
2019-03-21T19:13:23.692Z,16.63
2019-03-21T19:15:47.129Z,20.03
2019-03-21T19:18:10.608Z,22.23
2019-03-21T19:20:34.043Z,20.87
2019-03-21T19:22:57.483Z,23.93
2019-03-21T19:25:21.097Z,20.17
2019-03-21T19:27:44.543Z,19.40
2019-03-21T19:30:11.201Z,23.00
2019-03-21T19:32:34.646Z,19.17
2019-03-21T19:34:58.136Z,17.90
2019-03-21T19:37:21.576Z,20.80
2019-03-21T19:39:45.017Z,18.97
2019-03-21T19:42:08.502Z,19.17
2019-03-21T19:44:31.962Z,21.87
2019-03-21T19:46:55.432Z,17.97
2019-03-21T19:49:18.874Z,20.40
2019-03-21T19:51:42.311Z,18.37
2019-03-21T19:54:05.795Z,18.83
2019-03-21T19:56:29.231Z,21.93
2019-03-21T19:58:52.705Z,24.93
2019-03-21T20:01:16.138Z,21.87
2019-03-21T20:03:39.609Z,23.27
2019-03-21T20:06:03.257Z,18.80
2019-03-21T20:08:26.734Z,19.43
2019-03-21T20:10:50.230Z,21.27
2019-03-21T20:13:13.699Z,20.63
2019-03-21T20:15:37.446Z,18.33
2019-03-21T20:18:00.962Z,23.27
2019-03-21T20:20:24.388Z,21.90
2019-03-21T20:22:47.961Z,16.73
2019-03-21T20:25:11.867Z,20.07
2019-03-21T20:27:35.369Z,21.53
2019-03-21T20:29:58.842Z,17.77
2019-03-21T20:32:22.268Z,20.40
2019-03-21T20:34:45.741Z,22.07
2019-03-21T20:37:09.172Z,21.50
2019-03-21T20:39:32.644Z,22.07
2019-03-21T20:41:56.113Z,23.20
2019-03-21T20:44:19.543Z,18.33
2019-03-21T20:46:43.030Z,17.73
2019-03-21T20:49:06.461Z,15.67
2019-03-21T20:51:29.893Z,17.47
2019-03-21T20:53:53.375Z,20.60
2019-03-21T20:56:16.839Z,19.60
2019-03-21T20:58:40.273Z,16.60
2019-03-21T21:01:03.744Z,18.17
2019-03-21T21:03:27.208Z,15.57
2019-03-21T21:05:50.643Z,16.63
2019-03-21T21:08:14.076Z,14.77
2019-03-21T21:10:37.547Z,15.43
2019-03-21T21:13:01.009Z,15.37
2019-03-21T21:15:24.434Z,17.03
2019-03-21T21:17:47.901Z,16.77
2019-03-21T21:20:13.672Z,13.93
2019-03-21T21:22:37.145Z,15.73
2019-03-21T21:25:00.927Z,14.28
2019-03-21T21:27:24.399Z,16.93
2019-03-21T21:29:47.876Z,16.70
2019-03-21T21:32:11.442Z,14.80
2019-03-21T21:34:34.962Z,13.97
2019-03-21T21:36:58.402Z,17.10
2019-03-21T21:39:21.874Z,16.73
2019-03-21T21:41:45.307Z,13.17
2019-03-21T21:44:08.777Z,16.50
2019-03-21T21:46:32.210Z,14.53
2019-03-21T21:48:55.675Z,16.87
2019-03-21T21:51:19.151Z,17.80
2019-03-21T21:53:42.585Z,14.77
2019-03-21T21:56:16.958Z,16.63
2019-03-21T21:58:31.201Z,18.83
2019-03-21T22:00:54.637Z,17.93
2019-03-21T22:03:18.120Z,16.03
2019-03-21T22:05:41.555Z,17.47
2019-03-21T22:08:05.441Z,16.57
2019-03-21T22:10:29.581Z,13.90
2019-03-21T22:12:53.123Z,18.97
2019-03-21T22:15:17.897Z,17.10
2019-03-21T22:17:41.384Z,15.60
2019-03-21T22:20:05.955Z,16.90
2019-03-21T22:22:29.390Z,16.07
2019-03-21T22:24:52.867Z,14.90
2019-03-21T22:27:16.318Z,13.73
2019-03-21T22:29:39.791Z,14.47
2019-03-21T22:32:03.307Z,16.60
2019-03-21T22:34:26.757Z,15.43
2019-03-21T22:36:50.226Z,16.03
2019-03-21T22:39:13.661Z,16.43
2019-03-21T22:41:37.104Z,15.87
2019-03-21T22:44:00.533Z,14.70
2019-03-21T22:46:24.005Z,17.82
2019-03-21T22:48:47.436Z,19.23
2019-03-21T22:51:10.906Z,15.67
2019-03-21T22:53:34.337Z,17.70
2019-03-21T22:55:57.807Z,18.70
2019-03-21T22:58:31.375Z,17.60
2019-03-21T23:00:50.901Z,17.73
2019-03-21T23:03:14.331Z,16.83
2019-03-21T23:05:37.872Z,15.13
2019-03-21T23:08:01.302Z,16.60
2019-03-21T23:10:24.778Z,17.30
2019-03-21T23:12:48.216Z,14.43
2019-03-21T23:15:13.529Z,15.90
2019-03-21T23:17:38.546Z,14.80
2019-03-21T23:20:02.174Z,16.43
2019-03-21T23:22:26.018Z,18.13
2019-03-21T23:24:49.475Z,15.33
2019-03-21T23:27:12.912Z,14.40
2019-03-21T23:29:36.380Z,16.53
2019-03-21T23:31:59.814Z,14.93
2019-03-21T23:34:23.288Z,14.33
2019-03-21T23:36:46.772Z,17.80
2019-03-21T23:39:10.252Z,17.20
2019-03-21T23:41:33.689Z,17.27
2019-03-21T23:43:57.118Z,17.30
2019-03-21T23:46:20.587Z,15.33
2019-03-21T23:48:44.012Z,15.40
2019-03-21T23:51:07.482Z,38.13
2019-03-21T23:53:30.913Z,111.83
2019-03-21T23:55:54.350Z,101.77
2019-03-21T23:58:17.827Z,82.73
